Terminal Aerodrome Forecast
Issued by NWS

Home | Current Version | Previous Version | Graphics & Text | Print | Product List | Glossary On
Versions: 1 2 3 4 5 6 7 8 9 10 11 12 13 14
503
FTUS43 KGRB 161728
TAFAUW
TAF
KAUW 161728Z 1618/1718 34008KT P6SM SCT015 SCT030
      TEMPO 1619/1622 -SN BKN015
     FM162200 31006KT P6SM SCT025 BKN045
     FM170100 29005KT P6SM SCT120
     FM170400 28006KT P6SM BKN110
     FM170600 27006KT P6SM SCT130
     FM170800 26007KT P6SM BKN090
     FM171600 26012G22KT P6SM FEW250=

USA.gov is the U.S. government's official web portal to all federal, state and local government web resources and services.